sensor_id;sensor_type;location;lat;lon;timestamp;P1;durP1;ratioP1;P2;durP2;ratioP2
22152;SDS011;11242;50.536;12.688;2022-12-24T00:02:08;7.32;;;4.28;;
22152;SDS011;11242;50.536;12.688;2022-12-24T00:04:34;16.88;;;11.45;;
22152;SDS011;11242;50.536;12.688;2022-12-24T00:06:59;13.43;;;6.13;;
22152;SDS011;11242;50.536;12.688;2022-12-24T00:09:25;6.53;;;2.65;;
22152;SDS011;11242;50.536;12.688;2022-12-24T00:11:50;8.35;;;4.88;;
22152;SDS011;11242;50.536;12.688;2022-12-24T00:14:16;8.32;;;5.40;;
22152;SDS011;11242;50.536;12.688;2022-12-24T00:16:41;6.07;;;3.10;;
22152;SDS011;11242;50.536;12.688;2022-12-24T00:19:07;5.57;;;2.30;;
22152;SDS011;11242;50.536;12.688;2022-12-24T00:21:32;5.18;;;2.00;;
22152;SDS011;11242;50.536;12.688;2022-12-24T00:23:58;10.07;;;4.45;;
22152;SDS011;11242;50.536;12.688;2022-12-24T00:26:23;10.98;;;4.25;;
22152;SDS011;11242;50.536;12.688;2022-12-24T00:28:52;7.93;;;3.55;;
22152;SDS011;11242;50.536;12.688;2022-12-24T00:31:18;42.17;;;23.00;;
22152;SDS011;11242;50.536;12.688;2022-12-24T00:33:46;376.95;;;173.32;;
22152;SDS011;11242;50.536;12.688;2022-12-24T00:36:12;240.73;;;100.88;;
22152;SDS011;11242;50.536;12.688;2022-12-24T00:38:38;97.10;;;61.85;;
22152;SDS011;11242;50.536;12.688;2022-12-24T00:41:04;32.70;;;21.42;;
22152;SDS011;11242;50.536;12.688;2022-12-24T00:43:48;20.85;;;17.27;;
22152;SDS011;11242;50.536;12.688;2022-12-24T00:46:17;13.50;;;7.50;;
22152;SDS011;11242;50.536;12.688;2022-12-24T00:48:43;15.10;;;9.25;;
22152;SDS011;11242;50.536;12.688;2022-12-24T00:51:09;12.02;;;7.50;;
22152;SDS011;11242;50.536;12.688;2022-12-24T00:53:34;4.88;;;2.20;;
22152;SDS011;11242;50.536;12.688;2022-12-24T00:56:00;7.60;;;2.65;;
22152;SDS011;11242;50.536;12.688;2022-12-24T00:58:25;6.97;;;2.88;;
22152;SDS011;11242;50.536;12.688;2022-12-24T01:00:51;5.65;;;2.85;;
22152;SDS011;11242;50.536;12.688;2022-12-24T01:03:16;5.85;;;2.50;;
22152;SDS011;11242;50.536;12.688;2022-12-24T01:05:42;4.03;;;2.42;;
22152;SDS011;11242;50.536;12.688;2022-12-24T01:08:07;3.92;;;2.22;;
22152;SDS011;11242;50.536;12.688;2022-12-24T01:10:33;5.13;;;2.40;;
22152;SDS011;11242;50.536;12.688;2022-12-24T01:13:01;4.28;;;2.03;;
22152;SDS011;11242;50.536;12.688;2022-12-24T01:15:27;8.55;;;4.55;;
22152;SDS011;11242;50.536;12.688;2022-12-24T01:17:53;5.85;;;2.50;;
22152;SDS011;11242;50.536;12.688;2022-12-24T01:20:19;5.63;;;2.50;;
22152;SDS011;11242;50.536;12.688;2022-12-24T01:22:45;4.90;;;2.25;;
22152;SDS011;11242;50.536;12.688;2022-12-24T01:25:12;6.07;;;1.98;;
22152;SDS011;11242;50.536;12.688;2022-12-24T01:27:38;17.95;;;11.60;;
22152;SDS011;11242;50.536;12.688;2022-12-24T01:30:05;6.25;;;2.22;;
22152;SDS011;11242;50.536;12.688;2022-12-24T01:32:32;4.20;;;2.53;;
22152;SDS011;11242;50.536;12.688;2022-12-24T01:34:57;5.85;;;1.90;;
22152;SDS011;11242;50.536;12.688;2022-12-24T01:37:24;5.05;;;2.00;;
22152;SDS011;11242;50.536;12.688;2022-12-24T01:39:49;8.02;;;2.38;;
22152;SDS011;11242;50.536;12.688;2022-12-24T01:42:16;5.55;;;2.95;;
22152;SDS011;11242;50.536;12.688;2022-12-24T01:46:03;5.20;;;2.05;;
22152;SDS011;11242;50.536;12.688;2022-12-24T01:47:57;6.88;;;2.65;;
22152;SDS011;11242;50.536;12.688;2022-12-24T01:50:23;3.85;;;1.60;;
22152;SDS011;11242;50.536;12.688;2022-12-24T01:52:48;7.45;;;3.28;;
22152;SDS011;11242;50.536;12.688;2022-12-24T01:55:15;6.18;;;3.47;;
22152;SDS011;11242;50.536;12.688;2022-12-24T01:57:47;7.82;;;2.95;;
22152;SDS011;11242;50.536;12.688;2022-12-24T02:00:16;6.75;;;3.25;;
22152;SDS011;11242;50.536;12.688;2022-12-24T02:02:43;10.18;;;2.88;;
22152;SDS011;11242;50.536;12.688;2022-12-24T02:05:14;9.23;;;2.78;;
22152;SDS011;11242;50.536;12.688;2022-12-24T02:07:43;6.55;;;3.35;;
22152;SDS011;11242;50.536;12.688;2022-12-24T02:10:10;7.93;;;2.50;;
22152;SDS011;11242;50.536;12.688;2022-12-24T02:12:37;6.57;;;2.58;;
22152;SDS011;11242;50.536;12.688;2022-12-24T02:15:05;6.72;;;2.47;;
22152;SDS011;11242;50.536;12.688;2022-12-24T02:17:36;5.00;;;3.30;;
22152;SDS011;11242;50.536;12.688;2022-12-24T02:23:18;8.02;;;3.30;;
22152;SDS011;11242;50.536;12.688;2022-12-24T02:28:43;10.77;;;2.80;;
22152;SDS011;11242;50.536;12.688;2022-12-24T02:31:36;16.08;;;5.00;;
22152;SDS011;11242;50.536;12.688;2022-12-24T02:34:28;8.88;;;4.15;;
22152;SDS011;11242;50.536;12.688;2022-12-24T02:37:05;10.30;;;3.08;;
22152;SDS011;11242;50.536;12.688;2022-12-24T02:42:18;8.82;;;3.53;;
22152;SDS011;11242;50.536;12.688;2022-12-24T02:47:23;18.63;;;9.93;;
22152;SDS011;11242;50.536;12.688;2022-12-24T02:49:55;12.73;;;3.65;;
22152;SDS011;11242;50.536;12.688;2022-12-24T02:52:31;12.93;;;6.50;;
22152;SDS011;11242;50.536;12.688;2022-12-24T02:54:59;12.93;;;4.65;;
22152;SDS011;11242;50.536;12.688;2022-12-24T03:00:12;10.38;;;3.15;;
22152;SDS011;11242;50.536;12.688;2022-12-24T03:05:26;14.93;;;4.97;;
22152;SDS011;11242;50.536;12.688;2022-12-24T03:08:24;23.13;;;10.00;;
22152;SDS011;11242;50.536;12.688;2022-12-24T03:11:01;13.00;;;4.35;;
22152;SDS011;11242;50.536;12.688;2022-12-24T03:13:33;11.70;;;3.50;;
22152;SDS011;11242;50.536;12.688;2022-12-24T03:15:59;24.05;;;11.15;;
22152;SDS011;11242;50.536;12.688;2022-12-24T03:18:35;9.38;;;4.05;;
22152;SDS011;11242;50.536;12.688;2022-12-24T03:21:05;12.70;;;3.15;;
22152;SDS011;11242;50.536;12.688;2022-12-24T03:23:37;9.82;;;3.47;;
22152;SDS011;11242;50.536;12.688;2022-12-24T03:26:05;10.60;;;3.00;;
22152;SDS011;11242;50.536;12.688;2022-12-24T03:28:35;8.85;;;2.88;;
22152;SDS011;11242;50.536;12.688;2022-12-24T03:31:04;14.35;;;3.95;;
22152;SDS011;11242;50.536;12.688;2022-12-24T03:33:30;10.88;;;3.03;;
22152;SDS011;11242;50.536;12.688;2022-12-24T03:35:56;9.25;;;3.47;;
22152;SDS011;11242;50.536;12.688;2022-12-24T03:38:21;9.68;;;2.42;;
22152;SDS011;11242;50.536;12.688;2022-12-24T03:40:47;12.13;;;4.28;;
22152;SDS011;11242;50.536;12.688;2022-12-24T03:43:12;8.35;;;2.80;;
22152;SDS011;11242;50.536;12.688;2022-12-24T03:45:38;11.93;;;3.05;;
22152;SDS011;11242;50.536;12.688;2022-12-24T03:48:04;10.65;;;2.97;;
22152;SDS011;11242;50.536;12.688;2022-12-24T03:50:29;7.35;;;3.13;;
22152;SDS011;11242;50.536;12.688;2022-12-24T03:52:55;11.60;;;3.70;;
22152;SDS011;11242;50.536;12.688;2022-12-24T03:55:21;13.05;;;3.13;;
22152;SDS011;11242;50.536;12.688;2022-12-24T03:57:47;7.63;;;2.17;;
22152;SDS011;11242;50.536;12.688;2022-12-24T04:00:12;11.68;;;3.03;;
22152;SDS011;11242;50.536;12.688;2022-12-24T04:02:38;8.50;;;3.25;;
22152;SDS011;11242;50.536;12.688;2022-12-24T04:05:04;6.45;;;2.15;;
22152;SDS011;11242;50.536;12.688;2022-12-24T04:07:31;12.27;;;3.17;;
22152;SDS011;11242;50.536;12.688;2022-12-24T04:10:00;10.82;;;3.88;;
22152;SDS011;11242;50.536;12.688;2022-12-24T04:12:26;8.38;;;2.30;;
22152;SDS011;11242;50.536;12.688;2022-12-24T04:14:51;8.25;;;2.60;;
22152;SDS011;11242;50.536;12.688;2022-12-24T04:17:17;6.40;;;2.40;;
22152;SDS011;11242;50.536;12.688;2022-12-24T04:19:42;6.88;;;2.90;;
22152;SDS011;11242;50.536;12.688;2022-12-24T04:22:08;12.07;;;4.75;;
22152;SDS011;11242;50.536;12.688;2022-12-24T04:24:33;7.38;;;2.05;;
22152;SDS011;11242;50.536;12.688;2022-12-24T04:26:59;11.52;;;2.40;;
22152;SDS011;11242;50.536;12.688;2022-12-24T04:29:24;9.27;;;2.58;;
22152;SDS011;11242;50.536;12.688;2022-12-24T04:31:50;7.95;;;2.05;;
22152;SDS011;11242;50.536;12.688;2022-12-24T04:34:15;10.15;;;3.05;;
22152;SDS011;11242;50.536;12.688;2022-12-24T04:36:41;10.93;;;2.72;;
22152;SDS011;11242;50.536;12.688;2022-12-24T04:39:07;8.73;;;2.92;;
22152;SDS011;11242;50.536;12.688;2022-12-24T04:41:33;7.00;;;2.22;;
22152;SDS011;11242;50.536;12.688;2022-12-24T04:43:58;8.30;;;2.28;;
22152;SDS011;11242;50.536;12.688;2022-12-24T04:46:27;13.73;;;3.97;;
22152;SDS011;11242;50.536;12.688;2022-12-24T04:48:54;7.63;;;2.70;;
22152;SDS011;11242;50.536;12.688;2022-12-24T04:51:21;8.82;;;2.63;;
22152;SDS011;11242;50.536;12.688;2022-12-24T04:53:47;7.40;;;2.13;;
22152;SDS011;11242;50.536;12.688;2022-12-24T04:56:17;6.88;;;2.40;;
22152;SDS011;11242;50.536;12.688;2022-12-24T04:58:48;6.35;;;2.45;;
22152;SDS011;11242;50.536;12.688;2022-12-24T05:01:18;11.30;;;2.78;;
22152;SDS011;11242;50.536;12.688;2022-12-24T05:03:46;10.40;;;3.15;;
22152;SDS011;11242;50.536;12.688;2022-12-24T05:06:13;9.27;;;2.75;;
22152;SDS011;11242;50.536;12.688;2022-12-24T05:08:40;12.35;;;2.45;;
22152;SDS011;11242;50.536;12.688;2022-12-24T05:11:07;8.88;;;3.15;;
22152;SDS011;11242;50.536;12.688;2022-12-24T05:13:33;6.78;;;2.42;;
22152;SDS011;11242;50.536;12.688;2022-12-24T05:15:59;10.40;;;2.78;;
22152;SDS011;11242;50.536;12.688;2022-12-24T05:18:24;7.40;;;2.53;;
22152;SDS011;11242;50.536;12.688;2022-12-24T05:20:50;12.52;;;5.38;;
22152;SDS011;11242;50.536;12.688;2022-12-24T05:23:16;7.90;;;3.22;;
22152;SDS011;11242;50.536;12.688;2022-12-24T05:26:07;6.93;;;2.97;;
22152;SDS011;11242;50.536;12.688;2022-12-24T05:28:51;8.98;;;2.90;;
22152;SDS011;11242;50.536;12.688;2022-12-24T05:31:19;10.07;;;2.72;;
22152;SDS011;11242;50.536;12.688;2022-12-24T05:33:48;9.13;;;3.17;;
22152;SDS011;11242;50.536;12.688;2022-12-24T05:36:14;10.30;;;2.60;;
22152;SDS011;11242;50.536;12.688;2022-12-24T05:38:40;10.13;;;2.60;;
22152;SDS011;11242;50.536;12.688;2022-12-24T05:41:06;10.18;;;2.75;;
22152;SDS011;11242;50.536;12.688;2022-12-24T05:43:33;7.55;;;2.22;;
22152;SDS011;11242;50.536;12.688;2022-12-24T05:46:02;9.43;;;3.10;;
22152;SDS011;11242;50.536;12.688;2022-12-24T05:48:30;11.77;;;2.88;;
22152;SDS011;11242;50.536;12.688;2022-12-24T05:50:55;9.07;;;3.42;;
22152;SDS011;11242;50.536;12.688;2022-12-24T05:53:21;14.57;;;3.80;;
22152;SDS011;11242;50.536;12.688;2022-12-24T05:55:47;8.77;;;2.80;;
22152;SDS011;11242;50.536;12.688;2022-12-24T05:58:13;6.22;;;2.13;;
22152;SDS011;11242;50.536;12.688;2022-12-24T06:00:39;6.72;;;2.80;;
22152;SDS011;11242;50.536;12.688;2022-12-24T06:03:04;11.93;;;2.83;;
22152;SDS011;11242;50.536;12.688;2022-12-24T06:05:30;10.68;;;2.78;;
22152;SDS011;11242;50.536;12.688;2022-12-24T06:07:56;13.50;;;2.83;;
22152;SDS011;11242;50.536;12.688;2022-12-24T06:10:21;9.55;;;3.55;;
22152;SDS011;11242;50.536;12.688;2022-12-24T06:12:47;10.05;;;3.35;;
22152;SDS011;11242;50.536;12.688;2022-12-24T06:15:13;10.48;;;2.63;;
22152;SDS011;11242;50.536;12.688;2022-12-24T06:17:39;9.20;;;2.95;;
22152;SDS011;11242;50.536;12.688;2022-12-24T06:20:05;9.98;;;2.95;;
22152;SDS011;11242;50.536;12.688;2022-12-24T06:22:31;12.98;;;4.20;;
22152;SDS011;11242;50.536;12.688;2022-12-24T06:24:56;11.95;;;2.60;;
22152;SDS011;11242;50.536;12.688;2022-12-24T06:27:22;8.98;;;3.25;;
22152;SDS011;11242;50.536;12.688;2022-12-24T06:29:47;11.52;;;3.38;;
22152;SDS011;11242;50.536;12.688;2022-12-24T06:32:13;10.00;;;3.20;;
22152;SDS011;11242;50.536;12.688;2022-12-24T06:34:38;10.25;;;2.72;;
22152;SDS011;11242;50.536;12.688;2022-12-24T06:37:04;12.27;;;3.40;;
22152;SDS011;11242;50.536;12.688;2022-12-24T06:39:30;9.35;;;3.17;;
22152;SDS011;11242;50.536;12.688;2022-12-24T06:41:55;14.30;;;3.40;;
22152;SDS011;11242;50.536;12.688;2022-12-24T06:44:21;10.73;;;3.10;;
22152;SDS011;11242;50.536;12.688;2022-12-24T06:46:46;17.05;;;6.00;;
22152;SDS011;11242;50.536;12.688;2022-12-24T06:49:12;14.63;;;5.45;;
22152;SDS011;11242;50.536;12.688;2022-12-24T06:51:40;13.15;;;5.28;;
22152;SDS011;11242;50.536;12.688;2022-12-24T06:54:06;17.05;;;6.60;;
22152;SDS011;11242;50.536;12.688;2022-12-24T06:56:31;28.35;;;15.32;;
22152;SDS011;11242;50.536;12.688;2022-12-24T06:58:57;18.08;;;6.10;;
22152;SDS011;11242;50.536;12.688;2022-12-24T07:01:22;11.68;;;3.92;;
22152;SDS011;11242;50.536;12.688;2022-12-24T07:03:48;12.48;;;4.60;;
22152;SDS011;11242;50.536;12.688;2022-12-24T07:06:23;13.68;;;4.00;;
22152;SDS011;11242;50.536;12.688;2022-12-24T07:08:50;9.20;;;2.72;;
22152;SDS011;11242;50.536;12.688;2022-12-24T07:11:15;9.85;;;3.72;;
22152;SDS011;11242;50.536;12.688;2022-12-24T07:13:42;11.07;;;3.30;;
22152;SDS011;11242;50.536;12.688;2022-12-24T07:16:07;13.60;;;3.35;;
22152;SDS011;11242;50.536;12.688;2022-12-24T07:18:33;13.95;;;3.05;;
22152;SDS011;11242;50.536;12.688;2022-12-24T07:20:59;5.30;;;2.67;;
22152;SDS011;11242;50.536;12.688;2022-12-24T07:23:25;14.48;;;3.05;;
22152;SDS011;11242;50.536;12.688;2022-12-24T07:25:50;12.98;;;2.97;;
22152;SDS011;11242;50.536;12.688;2022-12-24T07:28:16;11.27;;;3.15;;
22152;SDS011;11242;50.536;12.688;2022-12-24T07:30:41;7.82;;;2.75;;
22152;SDS011;11242;50.536;12.688;2022-12-24T07:33:07;10.38;;;2.85;;
22152;SDS011;11242;50.536;12.688;2022-12-24T07:35:33;14.23;;;3.50;;
22152;SDS011;11242;50.536;12.688;2022-12-24T07:37:59;26.95;;;14.48;;
22152;SDS011;11242;50.536;12.688;2022-12-24T07:40:25;12.60;;;3.65;;
22152;SDS011;11242;50.536;12.688;2022-12-24T07:42:51;10.38;;;2.83;;
22152;SDS011;11242;50.536;12.688;2022-12-24T07:45:16;9.52;;;3.17;;
22152;SDS011;11242;50.536;12.688;2022-12-24T07:47:42;7.72;;;2.88;;
22152;SDS011;11242;50.536;12.688;2022-12-24T07:50:08;9.38;;;3.00;;
22152;SDS011;11242;50.536;12.688;2022-12-24T07:52:33;12.10;;;4.90;;
22152;SDS011;11242;50.536;12.688;2022-12-24T07:54:59;12.18;;;3.58;;
22152;SDS011;11242;50.536;12.688;2022-12-24T07:57:24;9.38;;;3.30;;
22152;SDS011;11242;50.536;12.688;2022-12-24T07:59:53;11.57;;;3.35;;
22152;SDS011;11242;50.536;12.688;2022-12-24T08:02:19;8.27;;;2.88;;
22152;SDS011;11242;50.536;12.688;2022-12-24T08:04:44;15.32;;;4.00;;
22152;SDS011;11242;50.536;12.688;2022-12-24T08:07:10;11.40;;;3.55;;
22152;SDS011;11242;50.536;12.688;2022-12-24T08:09:35;8.07;;;3.30;;
22152;SDS011;11242;50.536;12.688;2022-12-24T08:12:03;9.90;;;2.95;;
22152;SDS011;11242;50.536;12.688;2022-12-24T08:14:29;11.70;;;5.00;;
22152;SDS011;11242;50.536;12.688;2022-12-24T08:16:55;10.88;;;3.28;;
22152;SDS011;11242;50.536;12.688;2022-12-24T08:19:22;14.30;;;5.15;;
22152;SDS011;11242;50.536;12.688;2022-12-24T08:21:48;14.48;;;5.53;;
22152;SDS011;11242;50.536;12.688;2022-12-24T08:24:14;7.55;;;4.15;;
22152;SDS011;11242;50.536;12.688;2022-12-24T08:26:39;13.32;;;4.72;;
22152;SDS011;11242;50.536;12.688;2022-12-24T08:29:05;13.02;;;3.42;;
22152;SDS011;11242;50.536;12.688;2022-12-24T08:31:31;8.98;;;3.08;;
22152;SDS011;11242;50.536;12.688;2022-12-24T08:34:04;8.70;;;2.83;;
22152;SDS011;11242;50.536;12.688;2022-12-24T08:36:31;16.80;;;6.03;;
22152;SDS011;11242;50.536;12.688;2022-12-24T08:38:57;23.63;;;10.43;;
22152;SDS011;11242;50.536;12.688;2022-12-24T08:41:23;15.02;;;6.18;;
22152;SDS011;11242;50.536;12.688;2022-12-24T08:43:49;13.93;;;3.35;;
22152;SDS011;11242;50.536;12.688;2022-12-24T08:46:14;11.65;;;4.70;;
22152;SDS011;11242;50.536;12.688;2022-12-24T08:48:40;11.40;;;3.53;;
22152;SDS011;11242;50.536;12.688;2022-12-24T08:51:07;12.38;;;3.28;;
22152;SDS011;11242;50.536;12.688;2022-12-24T08:53:33;10.20;;;3.53;;
22152;SDS011;11242;50.536;12.688;2022-12-24T08:56:02;14.98;;;3.97;;
22152;SDS011;11242;50.536;12.688;2022-12-24T08:58:29;14.13;;;4.22;;
22152;SDS011;11242;50.536;12.688;2022-12-24T09:00:54;14.13;;;3.70;;
22152;SDS011;11242;50.536;12.688;2022-12-24T09:03:23;9.65;;;3.97;;
22152;SDS011;11242;50.536;12.688;2022-12-24T09:05:49;11.75;;;4.50;;
22152;SDS011;11242;50.536;12.688;2022-12-24T09:08:14;11.60;;;5.22;;
22152;SDS011;11242;50.536;12.688;2022-12-24T09:10:40;12.20;;;3.42;;
22152;SDS011;11242;50.536;12.688;2022-12-24T09:13:06;16.25;;;6.97;;
22152;SDS011;11242;50.536;12.688;2022-12-24T09:15:31;15.32;;;4.40;;
22152;SDS011;11242;50.536;12.688;2022-12-24T09:18:00;9.57;;;3.13;;
22152;SDS011;11242;50.536;12.688;2022-12-24T09:20:26;13.35;;;5.32;;
22152;SDS011;11242;50.536;12.688;2022-12-24T09:22:51;15.27;;;6.10;;
22152;SDS011;11242;50.536;12.688;2022-12-24T09:25:17;14.35;;;6.13;;
22152;SDS011;11242;50.536;12.688;2022-12-24T09:27:42;15.93;;;5.90;;
22152;SDS011;11242;50.536;12.688;2022-12-24T09:30:08;11.13;;;3.75;;
22152;SDS011;11242;50.536;12.688;2022-12-24T09:32:34;13.50;;;3.50;;
22152;SDS011;11242;50.536;12.688;2022-12-24T09:35:00;15.52;;;4.63;;
22152;SDS011;11242;50.536;12.688;2022-12-24T09:37:25;15.27;;;7.15;;
22152;SDS011;11242;50.536;12.688;2022-12-24T09:39:51;14.57;;;5.35;;
22152;SDS011;11242;50.536;12.688;2022-12-24T09:42:29;12.27;;;3.30;;
22152;SDS011;11242;50.536;12.688;2022-12-24T09:45:16;9.68;;;3.22;;
22152;SDS011;11242;50.536;12.688;2022-12-24T09:47:47;8.68;;;3.65;;
22152;SDS011;11242;50.536;12.688;2022-12-24T09:50:31;13.32;;;4.78;;
22152;SDS011;11242;50.536;12.688;2022-12-24T09:53:01;15.05;;;3.60;;
22152;SDS011;11242;50.536;12.688;2022-12-24T09:55:31;7.55;;;3.42;;
22152;SDS011;11242;50.536;12.688;2022-12-24T09:58:09;8.18;;;2.97;;
22152;SDS011;11242;50.536;12.688;2022-12-24T10:00:42;7.65;;;2.97;;
22152;SDS011;11242;50.536;12.688;2022-12-24T10:03:10;5.90;;;2.30;;
22152;SDS011;11242;50.536;12.688;2022-12-24T10:05:42;7.68;;;2.45;;
22152;SDS011;11242;50.536;12.688;2022-12-24T10:08:19;5.55;;;2.47;;
22152;SDS011;11242;50.536;12.688;2022-12-24T10:11:16;7.13;;;2.97;;
22152;SDS011;11242;50.536;12.688;2022-12-24T10:16:48;6.55;;;2.65;;
22152;SDS011;11242;50.536;12.688;2022-12-24T10:19:22;4.95;;;3.00;;
22152;SDS011;11242;50.536;12.688;2022-12-24T10:22:04;6.60;;;2.35;;
22152;SDS011;11242;50.536;12.688;2022-12-24T10:27:49;8.90;;;3.50;;
22152;SDS011;11242;50.536;12.688;2022-12-24T10:30:19;38.75;;;21.48;;
22152;SDS011;11242;50.536;12.688;2022-12-24T10:32:47;10.45;;;5.68;;
22152;SDS011;11242;50.536;12.688;2022-12-24T10:37:44;5.55;;;2.42;;
22152;SDS011;11242;50.536;12.688;2022-12-24T10:43:08;4.18;;;1.70;;
22152;SDS011;11242;50.536;12.688;2022-12-24T10:45:40;8.57;;;5.63;;
22152;SDS011;11242;50.536;12.688;2022-12-24T10:48:15;5.75;;;2.30;;
22152;SDS011;11242;50.536;12.688;2022-12-24T10:50:51;5.28;;;2.20;;
22152;SDS011;11242;50.536;12.688;2022-12-24T10:56:09;6.93;;;2.65;;
22152;SDS011;11242;50.536;12.688;2022-12-24T10:58:41;3.35;;;2.10;;
22152;SDS011;11242;50.536;12.688;2022-12-24T11:01:14;10.02;;;3.15;;
22152;SDS011;11242;50.536;12.688;2022-12-24T11:03:40;8.60;;;4.13;;
22152;SDS011;11242;50.536;12.688;2022-12-24T11:06:13;7.35;;;3.20;;
22152;SDS011;11242;50.536;12.688;2022-12-24T11:08:45;10.27;;;6.22;;
22152;SDS011;11242;50.536;12.688;2022-12-24T11:11:11;10.00;;;5.53;;
22152;SDS011;11242;50.536;12.688;2022-12-24T11:16:28;10.32;;;7.15;;
22152;SDS011;11242;50.536;12.688;2022-12-24T11:19:01;5.35;;;2.63;;
22152;SDS011;11242;50.536;12.688;2022-12-24T11:21:30;7.05;;;3.60;;
22152;SDS011;11242;50.536;12.688;2022-12-24T11:23:58;7.35;;;4.85;;
22152;SDS011;11242;50.536;12.688;2022-12-24T11:26:37;6.50;;;2.53;;
22152;SDS011;11242;50.536;12.688;2022-12-24T11:29:24;9.20;;;4.40;;
22152;SDS011;11242;50.536;12.688;2022-12-24T11:31:51;5.38;;;2.85;;
22152;SDS011;11242;50.536;12.688;2022-12-24T11:34:36;8.77;;;5.07;;
22152;SDS011;11242;50.536;12.688;2022-12-24T11:37:08;11.80;;;6.13;;
22152;SDS011;11242;50.536;12.688;2022-12-24T11:39:54;10.02;;;5.30;;
22152;SDS011;11242;50.536;12.688;2022-12-24T11:42:30;12.70;;;5.45;;
22152;SDS011;11242;50.536;12.688;2022-12-24T11:45:00;5.07;;;2.35;;
22152;SDS011;11242;50.536;12.688;2022-12-24T11:47:38;4.32;;;2.38;;
22152;SDS011;11242;50.536;12.688;2022-12-24T11:52:58;5.53;;;3.08;;
22152;SDS011;11242;50.536;12.688;2022-12-24T11:55:41;7.63;;;3.00;;
22152;SDS011;11242;50.536;12.688;2022-12-24T11:58:27;8.80;;;4.55;;
22152;SDS011;11242;50.536;12.688;2022-12-24T12:01:02;6.28;;;2.70;;
22152;SDS011;11242;50.536;12.688;2022-12-24T12:03:42;6.78;;;2.88;;
22152;SDS011;11242;50.536;12.688;2022-12-24T12:09:04;7.90;;;2.80;;
22152;SDS011;11242;50.536;12.688;2022-12-24T12:11:34;5.72;;;2.53;;
22152;SDS011;11242;50.536;12.688;2022-12-24T12:14:04;9.18;;;3.20;;
22152;SDS011;11242;50.536;12.688;2022-12-24T12:19:39;7.18;;;3.00;;
22152;SDS011;11242;50.536;12.688;2022-12-24T12:25:24;5.78;;;2.60;;
22152;SDS011;11242;50.536;12.688;2022-12-24T12:27:54;9.95;;;2.88;;
22152;SDS011;11242;50.536;12.688;2022-12-24T12:30:22;9.30;;;2.65;;
22152;SDS011;11242;50.536;12.688;2022-12-24T12:35:44;6.13;;;2.72;;
22152;SDS011;11242;50.536;12.688;2022-12-24T12:38:20;6.70;;;2.70;;
22152;SDS011;11242;50.536;12.688;2022-12-24T12:41:03;11.02;;;3.20;;
22152;SDS011;11242;50.536;12.688;2022-12-24T12:43:51;12.02;;;5.45;;
22152;SDS011;11242;50.536;12.688;2022-12-24T12:49:36;9.60;;;3.08;;
22152;SDS011;11242;50.536;12.688;2022-12-24T12:52:15;7.80;;;2.63;;
22152;SDS011;11242;50.536;12.688;2022-12-24T12:57:40;11.68;;;2.72;;
22152;SDS011;11242;50.536;12.688;2022-12-24T13:00:12;13.45;;;3.67;;
22152;SDS011;11242;50.536;12.688;2022-12-24T13:02:50;9.23;;;3.08;;
22152;SDS011;11242;50.536;12.688;2022-12-24T13:05:59;13.23;;;2.67;;
22152;SDS011;11242;50.536;12.688;2022-12-24T13:11:05;6.90;;;2.35;;
22152;SDS011;11242;50.536;12.688;2022-12-24T13:22:15;16.20;;;8.68;;
22152;SDS011;11242;50.536;12.688;2022-12-24T13:24:54;8.63;;;2.67;;
22152;SDS011;11242;50.536;12.688;2022-12-24T13:27:28;15.18;;;8.68;;
22152;SDS011;11242;50.536;12.688;2022-12-24T13:34:56;8.10;;;2.90;;
22152;SDS011;11242;50.536;12.688;2022-12-24T13:50:35;7.07;;;2.90;;
22152;SDS011;11242;50.536;12.688;2022-12-24T13:53:30;12.48;;;7.38;;
22152;SDS011;11242;50.536;12.688;2022-12-24T13:58:35;8.50;;;3.15;;
22152;SDS011;11242;50.536;12.688;2022-12-24T14:01:09;8.90;;;3.20;;
22152;SDS011;11242;50.536;12.688;2022-12-24T14:03:50;7.13;;;3.40;;
22152;SDS011;11242;50.536;12.688;2022-12-24T14:06:31;8.57;;;2.97;;
22152;SDS011;11242;50.536;12.688;2022-12-24T14:09:11;11.93;;;3.40;;
22152;SDS011;11242;50.536;12.688;2022-12-24T14:17:00;7.28;;;3.08;;
22152;SDS011;11242;50.536;12.688;2022-12-24T14:19:32;9.48;;;5.13;;
22152;SDS011;11242;50.536;12.688;2022-12-24T14:24:58;11.07;;;6.22;;
22152;SDS011;11242;50.536;12.688;2022-12-24T14:27:37;8.57;;;3.83;;
22152;SDS011;11242;50.536;12.688;2022-12-24T14:30:12;11.25;;;4.97;;
22152;SDS011;11242;50.536;12.688;2022-12-24T14:32:49;14.20;;;9.43;;
22152;SDS011;11242;50.536;12.688;2022-12-24T14:37:45;6.80;;;4.20;;
22152;SDS011;11242;50.536;12.688;2022-12-24T14:40:20;10.07;;;4.07;;
22152;SDS011;11242;50.536;12.688;2022-12-24T14:43:05;10.60;;;6.95;;
22152;SDS011;11242;50.536;12.688;2022-12-24T14:45:56;3.58;;;2.08;;
22152;SDS011;11242;50.536;12.688;2022-12-24T14:56:38;5.55;;;3.00;;
22152;SDS011;11242;50.536;12.688;2022-12-24T14:59:14;6.88;;;4.03;;
22152;SDS011;11242;50.536;12.688;2022-12-24T15:01:41;8.25;;;4.40;;
22152;SDS011;11242;50.536;12.688;2022-12-24T15:06:36;5.82;;;4.07;;
22152;SDS011;11242;50.536;12.688;2022-12-24T15:09:03;10.93;;;5.43;;
22152;SDS011;11242;50.536;12.688;2022-12-24T15:11:30;10.70;;;6.68;;
22152;SDS011;11242;50.536;12.688;2022-12-24T15:13:57;6.85;;;3.65;;
22152;SDS011;11242;50.536;12.688;2022-12-24T15:16:29;6.75;;;3.80;;
22152;SDS011;11242;50.536;12.688;2022-12-24T15:21:28;11.10;;;4.85;;
22152;SDS011;11242;50.536;12.688;2022-12-24T15:23:56;10.65;;;6.22;;
22152;SDS011;11242;50.536;12.688;2022-12-24T15:26:23;10.07;;;3.72;;
22152;SDS011;11242;50.536;12.688;2022-12-24T15:28:55;8.23;;;3.70;;
22152;SDS011;11242;50.536;12.688;2022-12-24T15:31:25;10.02;;;4.78;;
22152;SDS011;11242;50.536;12.688;2022-12-24T15:33:53;13.93;;;7.75;;
22152;SDS011;11242;50.536;12.688;2022-12-24T15:36:30;16.75;;;7.22;;
22152;SDS011;11242;50.536;12.688;2022-12-24T15:39:02;14.77;;;7.90;;
22152;SDS011;11242;50.536;12.688;2022-12-24T15:41:40;15.77;;;8.55;;
22152;SDS011;11242;50.536;12.688;2022-12-24T15:44:27;14.90;;;5.45;;
22152;SDS011;11242;50.536;12.688;2022-12-24T15:46:57;40.35;;;21.25;;
22152;SDS011;11242;50.536;12.688;2022-12-24T15:49:24;36.35;;;17.80;;
22152;SDS011;11242;50.536;12.688;2022-12-24T15:51:52;69.70;;;35.35;;
22152;SDS011;11242;50.536;12.688;2022-12-24T15:54:18;21.52;;;10.25;;
22152;SDS011;11242;50.536;12.688;2022-12-24T15:56:46;29.30;;;15.00;;
22152;SDS011;11242;50.536;12.688;2022-12-24T16:01:43;31.65;;;16.02;;
22152;SDS011;11242;50.536;12.688;2022-12-24T16:04:11;35.63;;;17.92;;
22152;SDS011;11242;50.536;12.688;2022-12-24T16:06:52;9.60;;;4.53;;
22152;SDS011;11242;50.536;12.688;2022-12-24T16:09:29;7.78;;;3.50;;
22152;SDS011;11242;50.536;12.688;2022-12-24T16:12:14;21.17;;;10.60;;
22152;SDS011;11242;50.536;12.688;2022-12-24T16:14:49;21.85;;;11.38;;
22152;SDS011;11242;50.536;12.688;2022-12-24T16:17:20;17.05;;;9.70;;
22152;SDS011;11242;50.536;12.688;2022-12-24T16:19:48;26.20;;;13.95;;
22152;SDS011;11242;50.536;12.688;2022-12-24T16:22:19;23.40;;;11.23;;
22152;SDS011;11242;50.536;12.688;2022-12-24T16:24:56;29.65;;;16.27;;
22152;SDS011;11242;50.536;12.688;2022-12-24T16:27:22;24.05;;;12.77;;
22152;SDS011;11242;50.536;12.688;2022-12-24T16:29:48;16.27;;;9.02;;
22152;SDS011;11242;50.536;12.688;2022-12-24T16:32:21;15.40;;;5.70;;
22152;SDS011;11242;50.536;12.688;2022-12-24T16:34:59;13.18;;;5.30;;